Terminal Aerodrome Forecast
Issued by NWS

Current Version | Previous Version | Text Only | Print | Product List | Glossary On
Versions: 1 2 3 4 5 6 7 8 9 10 11 12 13 14 15 16 17 18 19
204
FTUS45 KABQ 310521
TAFTCC
TAF
KTCC 310521Z 3106/0106 22007G14KT P6SM SCT040 SCT150
     FM311200 31008KT P6SM SCT120
     FM311700 04011KT P6SM BKN090
     FM312100 02015G25KT P6SM VCTS BKN080CB=

USA.gov is the U.S. government's official web portal to all federal, state and local government web resources and services.